Time;durP1;ratioP1;P1;durP2;ratioP2;P2;SDS_P1;SDS_P2;PMS_P1;PMS_P2;Temp;Humidity;BMP_temperature;BMP_pressure;BME280_temperature;BME280_humidity;BME280_pressure;Samples;Min_cycle;Max_cycle;Signal;HPM_P1;HPM_P2
2020/12/21 00:00:37;;;;;;;66.15;19.33;;;6.90;99.90;;;;;;5051213;28;20397;-79
2020/12/21 00:03:03;;;;;;;54.40;19.75;;;6.90;99.90;;;;;;5053453;28;20052;-79
2020/12/21 00:05:30;;;;;;;50.03;18.73;;;6.80;99.90;;;;;;5052001;28;20572;-79
2020/12/21 00:07:59;;;;;;;58.63;18.88;;;6.80;99.90;;;;;;5052194;28;20033;-79
2020/12/21 00:10:25;;;;;;;60.00;20.38;;;6.80;99.90;;;;;;5052131;28;20020;-79
2020/12/21 00:12:51;;;;;;;59.13;21.10;;;6.60;99.90;;;;;;5052309;28;20017;-79
2020/12/21 00:15:16;;;;;;;65.47;20.88;;;6.70;99.90;;;;;;5070328;28;20111;-79
2020/12/21 00:17:42;;;;;;;62.20;20.30;;;6.70;99.90;;;;;;5071752;28;20554;-79
2020/12/21 00:20:07;;;;;;;48.42;19.20;;;6.60;99.90;;;;;;5072128;28;20577;-79
2020/12/21 00:22:33;;;;;;;68.13;20.75;;;6.60;99.90;;;;;;5068421;28;20036;-79
2020/12/21 00:24:58;;;;;;;77.47;21.08;;;6.60;99.90;;;;;;5051814;28;20448;-79
2020/12/21 00:27:24;;;;;;;54.22;20.55;;;6.50;99.90;;;;;;5051947;28;20029;-79
2020/12/21 00:29:49;;;;;;;61.03;21.63;;;6.40;99.90;;;;;;5051992;28;20040;-79
2020/12/21 00:32:15;;;;;;;60.97;19.73;;;6.40;99.90;;;;;;5051840;28;20025;-79
2020/12/21 00:34:41;;;;;;;58.30;19.38;;;6.30;99.90;;;;;;5051938;28;20052;-79
2020/12/21 00:37:06;;;;;;;65.47;20.42;;;6.30;99.90;;;;;;5051786;28;20021;-79
2020/12/21 00:39:32;;;;;;;54.97;18.25;;;6.20;99.90;;;;;;5050545;28;20032;-79
2020/12/21 00:41:58;;;;;;;60.28;20.98;;;6.30;99.90;;;;;;5051833;28;20032;-79
2020/12/21 00:44:24;;;;;;;55.75;19.77;;;6.20;99.90;;;;;;5064253;28;20029;-79
2020/12/21 00:46:49;;;;;;;65.63;20.95;;;6.30;99.90;;;;;;5071698;28;20397;-79
2020/12/21 00:49:15;;;;;;;53.25;19.83;;;6.40;99.90;;;;;;5071645;28;20024;-79
2020/12/21 00:51:40;;;;;;;82.93;21.67;;;6.40;99.90;;;;;;5071616;28;20112;-79
2020/12/21 00:54:06;;;;;;;64.40;20.60;;;6.50;99.90;;;;;;5054859;28;20087;-79
2020/12/21 00:56:31;;;;;;;50.92;20.15;;;6.60;99.90;;;;;;5051420;28;20032;-79
2020/12/21 00:58:57;;;;;;;72.80;20.50;;;6.70;99.90;;;;;;5051648;28;20112;-79
2020/12/21 01:01:29;;;;;;;73.53;20.40;;;6.70;99.90;;;;;;5051562;28;20025;-79
2020/12/21 01:03:59;;;;;;;65.90;18.77;;;6.80;99.90;;;;;;5063196;28;20055;-79
2020/12/21 01:06:25;;;;;;;59.03;19.05;;;7.00;99.90;;;;;;5070076;28;20155;-79
2020/12/21 01:08:51;;;;;;;66.28;19.95;;;6.90;99.90;;;;;;5071287;28;20494;-79
2020/12/21 01:11:17;;;;;;;46.05;16.98;;;6.90;99.90;;;;;;5071517;28;20438;-79
2020/12/21 01:13:46;;;;;;;61.03;16.88;;;6.90;99.90;;;;;;5063773;28;20481;-79
2020/12/21 01:16:12;;;;;;;59.35;19.20;;;7.00;99.90;;;;;;5051379;28;20044;-79
2020/12/21 01:18:38;;;;;;;53.95;17.40;;;7.00;99.90;;;;;;5051393;28;20450;-79
2020/12/21 01:21:04;;;;;;;53.22;16.38;;;7.00;99.90;;;;;;5050142;28;20116;-79
2020/12/21 01:23:30;;;;;;;61.47;18.25;;;7.00;99.90;;;;;;5061160;28;20033;-79
2020/12/21 01:25:55;;;;;;;69.15;17.40;;;7.00;99.90;;;;;;5069377;28;20039;-79
2020/12/21 01:28:21;;;;;;;58.00;16.77;;;7.00;99.90;;;;;;5071393;28;20028;-79
2020/12/21 01:30:47;;;;;;;48.08;16.50;;;7.00;99.90;;;;;;5071228;28;20029;-79
2020/12/21 01:33:12;;;;;;;50.72;16.30;;;7.00;99.90;;;;;;5065129;28;20389;-79
2020/12/21 01:35:39;;;;;;;59.95;17.80;;;7.00;99.90;;;;;;5049861;28;20377;-80
2020/12/21 01:38:05;;;;;;;47.40;17.50;;;7.00;99.90;;;;;;5049920;28;20021;-79
2020/12/21 01:40:31;;;;;;;54.42;16.67;;;7.00;99.90;;;;;;5051327;28;20036;-79
2020/12/21 01:42:57;;;;;;;45.17;16.98;;;7.00;99.90;;;;;;5059840;28;20380;-79
2020/12/21 01:45:22;;;;;;;53.42;16.75;;;7.10;99.90;;;;;;5071083;28;20071;-79
2020/12/21 01:47:48;;;;;;;51.10;17.15;;;7.10;99.90;;;;;;5071049;28;20085;-79
2020/12/21 01:50:14;;;;;;;37.70;15.20;;;7.10;99.90;;;;;;5071220;28;20063;-79
2020/12/21 01:52:40;;;;;;;43.83;16.20;;;7.10;99.90;;;;;;5066628;28;20419;-79
2020/12/21 01:55:05;;;;;;;44.00;15.35;;;7.10;99.90;;;;;;5051196;28;20370;-79
2020/12/21 01:57:31;;;;;;;58.63;15.18;;;7.10;99.90;;;;;;5054488;28;20021;-79
2020/12/21 01:59:57;;;;;;;46.58;15.57;;;7.10;99.90;;;;;;5053418;28;20025;-79
2020/12/21 02:02:23;;;;;;;51.55;15.50;;;7.10;99.90;;;;;;5054751;28;20481;-79
2020/12/21 02:04:49;;;;;;;59.60;14.32;;;7.00;99.90;;;;;;5073346;28;20036;-79
2020/12/21 02:07:15;;;;;;;43.00;14.35;;;7.00;99.90;;;;;;5074283;28;20430;-79
2020/12/21 02:09:42;;;;;;;46.40;15.27;;;7.00;99.90;;;;;;5074527;28;20362;-79
2020/12/21 02:12:07;;;;;;;43.20;14.43;;;7.00;99.90;;;;;;5073901;28;20480;-79
2020/12/21 02:14:33;;;;;;;45.65;14.07;;;7.00;99.90;;;;;;5059892;28;20086;-79
2020/12/21 02:16:59;;;;;;;42.72;14.70;;;7.00;99.90;;;;;;5053034;28;20037;-79
2020/12/21 02:19:24;;;;;;;44.58;14.57;;;7.10;99.90;;;;;;5054350;28;20029;-79
2020/12/21 02:21:50;;;;;;;41.13;15.60;;;7.00;99.90;;;;;;5054324;28;20083;-79
2020/12/21 02:24:15;;;;;;;45.00;15.35;;;7.00;99.90;;;;;;5070705;28;20031;-79
2020/12/21 02:26:41;;;;;;;46.08;15.18;;;7.00;99.90;;;;;;5074109;28;20447;-79
2020/12/21 02:29:07;;;;;;;47.88;14.82;;;7.00;99.90;;;;;;5074129;28;20028;-79
2020/12/21 02:31:32;;;;;;;44.38;15.10;;;7.10;99.90;;;;;;5072433;28;20032;-79
2020/12/21 02:33:58;;;;;;;48.90;15.63;;;7.00;99.90;;;;;;5073871;28;20071;-79
2020/12/21 02:36:24;;;;;;;54.05;14.48;;;7.00;99.90;;;;;;5073990;28;20032;-79
2020/12/21 02:38:50;;;;;;;48.42;14.93;;;7.00;99.90;;;;;;5058662;28;20025;-79
2020/12/21 02:41:17;;;;;;;45.35;15.25;;;7.00;99.90;;;;;;5053883;28;20048;-79
2020/12/21 02:43:43;;;;;;;53.70;15.88;;;7.00;99.90;;;;;;5052405;28;20059;-79
2020/12/21 02:46:10;;;;;;;47.95;14.20;;;7.00;99.90;;;;;;5053852;28;20060;-79
2020/12/21 02:48:36;;;;;;;52.47;14.63;;;7.00;99.90;;;;;;5061341;28;20033;-79
2020/12/21 02:51:02;;;;;;;43.55;14.88;;;6.90;99.90;;;;;;5072492;28;20468;-78
2020/12/21 02:53:27;;;;;;;43.05;13.75;;;6.90;99.90;;;;;;5073471;28;20027;-79
2020/12/21 02:55:53;;;;;;;72.82;14.75;;;7.00;99.90;;;;;;5073317;28;20020;-79
2020/12/21 02:58:19;;;;;;;46.78;14.00;;;6.90;99.90;;;;;;5069522;28;20025;-79
2020/12/21 03:00:45;;;;;;;44.83;14.15;;;7.00;99.90;;;;;;5053558;28;20036;-79
2020/12/21 03:03:11;;;;;;;47.40;13.27;;;7.00;99.90;;;;;;5053610;28;20097;-79
2020/12/21 03:05:36;;;;;;;55.47;15.02;;;7.00;99.90;;;;;;5053261;28;20040;-79
2020/12/21 03:08:04;;;;;;;48.47;14.75;;;6.90;99.90;;;;;;5059310;28;20032;-79
2020/12/21 03:10:30;;;;;;;60.20;14.95;;;6.90;99.90;;;;;;5073243;28;20074;-79
2020/12/21 03:12:56;;;;;;;44.05;13.13;;;6.90;99.90;;;;;;5073395;28;20024;-79
2020/12/21 03:15:21;;;;;;;37.33;13.75;;;6.80;99.90;;;;;;5071819;28;20021;-79
2020/12/21 03:17:47;;;;;;;44.33;14.07;;;6.80;99.90;;;;;;5070520;28;20029;-79
2020/12/21 03:20:13;;;;;;;53.75;14.60;;;6.80;99.90;;;;;;5051895;28;20112;-79
2020/12/21 03:22:38;;;;;;;62.70;14.90;;;6.80;99.90;;;;;;5053208;28;20040;-80
2020/12/21 03:25:05;;;;;;;58.17;15.48;;;6.80;99.90;;;;;;5051589;28;20485;-80
2020/12/21 03:27:31;;;;;;;51.65;14.82;;;6.80;99.90;;;;;;5052966;28;20040;-80
2020/12/21 03:29:57;;;;;;;53.58;14.85;;;6.80;99.90;;;;;;5068373;28;20036;-79
2020/12/21 03:32:23;;;;;;;63.90;14.90;;;6.80;99.90;;;;;;5072543;28;20032;-79
2020/12/21 03:34:48;;;;;;;68.63;14.25;;;6.80;99.90;;;;;;5071596;28;20107;-79
2020/12/21 03:37:14;;;;;;;52.05;14.15;;;6.80;99.90;;;;;;5071962;28;20070;-80
2020/12/21 03:39:40;;;;;;;44.40;14.23;;;6.80;99.90;;;;;;5051570;28;20025;-79
2020/12/21 03:42:05;;;;;;;48.08;15.68;;;6.80;99.90;;;;;;5051490;28;20028;-79
2020/12/21 03:44:31;;;;;;;53.53;16.42;;;6.90;99.90;;;;;;5052514;28;20059;-79
2020/12/21 03:46:56;;;;;;;51.15;14.90;;;6.90;99.90;;;;;;5051406;28;20090;-79
2020/12/21 03:49:22;;;;;;;57.85;15.77;;;6.90;99.90;;;;;;5067535;28;20036;-79
2020/12/21 03:51:48;;;;;;;41.90;15.38;;;6.90;99.90;;;;;;5070215;28;20036;-79
2020/12/21 03:54:13;;;;;;;50.42;14.80;;;6.90;99.90;;;;;;5053930;28;20035;-79
2020/12/21 03:56:43;;;;;;;56.80;15.13;;;6.90;99.90;;;;;;5052591;28;20072;-79
2020/12/21 03:59:09;;;;;;;46.33;15.00;;;6.90;99.90;;;;;;5061378;28;20492;-79
2020/12/21 04:01:34;;;;;;;58.92;15.85;;;6.90;99.90;;;;;;5072396;28;20040;-79
2020/12/21 04:04:00;;;;;;;49.85;14.82;;;6.90;99.90;;;;;;5070940;28;20070;-80
2020/12/21 04:06:25;;;;;;;54.72;15.05;;;6.90;99.90;;;;;;5072206;28;20460;-79
2020/12/21 04:08:51;;;;;;;56.47;15.05;;;6.90;99.90;;;;;;5057999;28;20039;-79
2020/12/21 04:11:16;;;;;;;54.97;16.60;;;7.00;99.90;;;;;;5052243;28;20067;-79
2020/12/21 04:13:42;;;;;;;51.63;15.52;;;6.90;99.90;;;;;;5052152;28;20543;-79
2020/12/21 04:16:08;;;;;;;54.88;15.60;;;6.80;99.90;;;;;;5051691;28;20036;-79
2020/12/21 04:18:33;;;;;;;44.17;14.90;;;6.80;99.90;;;;;;5058791;28;20056;-79
2020/12/21 04:20:59;;;;;;;56.42;15.07;;;6.70;99.90;;;;;;5072134;28;20078;-79
2020/12/21 04:23:24;;;;;;;51.10;15.13;;;6.70;99.90;;;;;;5071759;28;20103;-79
2020/12/21 04:25:50;;;;;;;65.90;16.33;;;6.70;99.90;;;;;;5071917;28;20059;-79
2020/12/21 04:28:16;;;;;;;51.88;15.52;;;6.70;99.90;;;;;;5067287;28;20048;-79
2020/12/21 04:30:42;;;;;;;58.92;16.90;;;6.70;99.90;;;;;;5051826;28;20033;-80
2020/12/21 04:33:07;;;;;;;58.15;16.52;;;6.60;99.90;;;;;;5051918;28;20029;-79
2020/12/21 04:35:33;;;;;;;45.00;15.07;;;6.70;99.90;;;;;;5051773;28;20461;-80
2020/12/21 04:37:58;;;;;;;46.25;18.25;;;6.60;99.90;;;;;;5058094;28;20027;-80
2020/12/21 04:40:24;;;;;;;53.55;17.05;;;6.70;99.90;;;;;;5071904;28;20074;-79
2020/12/21 04:42:51;;;;;;;38.72;16.25;;;6.70;99.90;;;;;;5071751;28;20035;-80
2020/12/21 04:45:18;;;;;;;59.60;18.70;;;6.70;99.90;;;;;;5070439;28;20029;-79
2020/12/21 04:47:44;;;;;;;65.97;16.52;;;6.70;99.90;;;;;;5068554;28;20024;-79
2020/12/21 04:50:12;;;;;;;58.10;17.60;;;6.70;99.90;;;;;;5051763;28;20481;-79
2020/12/21 04:52:51;;;;;;;57.75;17.58;;;6.70;99.90;;;;;;5051530;28;20029;-79
2020/12/21 04:55:22;;;;;;;72.00;18.77;;;6.60;99.90;;;;;;5051506;28;20104;-80
2020/12/21 04:57:55;;;;;;;50.22;17.10;;;6.60;99.90;;;;;;5051591;28;20036;-80
2020/12/21 05:00:21;;;;;;;62.08;19.40;;;6.50;99.90;;;;;;5050426;28;20056;-79
2020/12/21 05:02:47;;;;;;;61.72;19.42;;;6.40;99.90;;;;;;5050319;28;20083;-80
2020/12/21 05:05:12;;;;;;;55.40;19.17;;;6.30;99.90;;;;;;5050088;28;20025;-79
2020/12/21 05:07:38;;;;;;;50.92;19.45;;;6.30;99.90;;;;;;5053760;28;20024;-79
2020/12/21 05:10:10;;;;;;;80.60;20.63;;;6.30;99.90;;;;;;5070417;28;20492;-79
2020/12/21 05:12:36;;;;;;;63.83;21.20;;;6.30;99.90;;;;;;5070217;28;20024;-79
2020/12/21 05:15:16;;;;;;;64.07;20.08;;;6.20;99.90;;;;;;5071392;28;20021;-79
2020/12/21 05:17:42;;;;;;;68.25;20.92;;;6.20;99.90;;;;;;5068809;28;20090;-80
2020/12/21 05:20:07;;;;;;;67.50;21.17;;;6.20;99.90;;;;;;5051455;28;20025;-79
2020/12/21 05:22:33;;;;;;;69.03;22.00;;;6.20;99.90;;;;;;5051451;28;20094;-79
2020/12/21 05:25:06;;;;;;;64.70;22.30;;;6.20;99.90;;;;;;5051202;28;20041;-79
2020/12/21 05:27:32;;;;;;;62.90;21.38;;;6.10;99.90;;;;;;5050167;28;20438;-80
2020/12/21 05:29:58;;;;;;;65.10;22.75;;;6.20;99.90;;;;;;5066739;28;20024;-80
2020/12/21 05:32:24;;;;;;;66.82;23.00;;;6.10;99.90;;;;;;5073658;28;20064;-80
2020/12/21 05:34:50;;;;;;;65.07;23.50;;;6.10;99.90;;;;;;5075047;28;20052;-80
2020/12/21 05:37:19;;;;;;;75.32;23.58;;;6.10;99.90;;;;;;5073022;28;20392;-80
2020/12/21 05:39:53;;;;;;;68.43;25.23;;;6.10;99.90;;;;;;5055210;28;20121;-80
2020/12/21 05:42:20;;;;;;;61.63;24.80;;;6.10;99.90;;;;;;5054522;28;20166;-80
2020/12/21 05:45:08;;;;;;;66.50;24.88;;;6.10;99.90;;;;;;5054341;28;20489;-80
2020/12/21 05:47:34;;;;;;;67.90;24.77;;;6.10;99.90;;;;;;5053462;28;20037;-81
2020/12/21 05:50:03;;;;;;;56.05;24.38;;;6.10;99.90;;;;;;5074805;28;20043;-80
2020/12/21 05:52:28;;;;;;;62.20;25.15;;;6.20;99.90;;;;;;5075411;28;20807;-79
2020/12/21 05:54:54;;;;;;;53.17;23.77;;;6.10;99.90;;;;;;5074315;28;20074;-79
2020/12/21 05:57:20;;;;;;;60.78;24.83;;;6.20;99.90;;;;;;5076095;28;20074;-80
2020/12/21 05:59:49;;;;;;;51.35;24.02;;;6.20;99.90;;;;;;5060258;28;20497;-80
2020/12/21 06:02:18;;;;;;;67.90;23.77;;;6.20;99.90;;;;;;5056349;28;20067;-80
2020/12/21 06:04:48;;;;;;;71.35;24.00;;;6.20;99.90;;;;;;5056091;28;20121;-80
2020/12/21 06:07:22;;;;;;;65.63;25.23;;;6.20;99.90;;;;;;5055313;28;20061;-81
2020/12/21 06:09:51;;;;;;;55.10;25.17;;;6.30;99.90;;;;;;5073329;28;20035;-80
2020/12/21 06:12:22;;;;;;;66.45;24.20;;;6.30;99.90;;;;;;5074506;28;20036;-80
2020/12/21 06:14:49;;;;;;;65.57;24.77;;;6.30;99.90;;;;;;5074345;28;20026;-82
2020/12/21 06:17:15;;;;;;;62.08;23.92;;;6.30;99.90;;;;;;5074343;28;20037;-82
2020/12/21 06:19:40;;;;;;;63.00;24.77;;;6.30;99.90;;;;;;5056993;28;20029;-81
2020/12/21 06:22:06;;;;;;;48.60;23.15;;;6.30;99.90;;;;;;5054888;28;20032;-80
2020/12/21 06:24:38;;;;;;;68.78;24.90;;;6.40;99.90;;;;;;5073398;28;20071;-82
2020/12/21 06:27:14;;;;;;;53.30;23.73;;;6.40;99.90;;;;;;5059095;28;20029;-81
2020/12/21 06:29:40;;;;;;;48.88;22.65;;;6.40;99.90;;;;;;5054280;28;20032;-81
2020/12/21 06:32:07;;;;;;;50.13;22.70;;;6.40;99.90;;;;;;5054153;28;20025;-80
2020/12/21 06:34:35;;;;;;;60.20;23.33;;;6.40;99.90;;;;;;5053945;28;20017;-81
2020/12/21 06:37:21;;;;;;;55.17;23.02;;;6.40;99.90;;;;;;5064678;28;20024;-81
2020/12/21 06:40:06;;;;;;;52.08;21.35;;;6.50;99.90;;;;;;5064685;28;20033;-82
2020/12/21 06:42:32;;;;;;;57.58;21.88;;;6.60;99.90;;;;;;5053682;28;20040;-82
2020/12/21 06:44:58;;;;;;;60.42;23.58;;;6.50;99.90;;;;;;5053707;28;20029;-81
2020/12/21 06:47:26;;;;;;;65.68;23.63;;;6.50;99.90;;;;;;5064853;28;20475;-81
2020/12/21 06:49:52;;;;;;;77.10;23.63;;;6.60;99.90;;;;;;5072672;28;20029;-81
2020/12/21 06:52:19;;;;;;;59.03;24.70;;;6.60;99.90;;;;;;5073498;28;20024;-81
2020/12/21 06:54:45;;;;;;;54.80;23.02;;;6.60;99.90;;;;;;5073572;28;20523;-81
2020/12/21 06:57:12;;;;;;;55.08;22.77;;;6.60;99.90;;;;;;5066902;28;20021;-81
2020/12/21 06:59:38;;;;;;;61.17;24.88;;;6.60;99.90;;;;;;5053606;28;20032;-81
2020/12/21 07:02:04;;;;;;;64.43;23.55;;;6.60;99.90;;;;;;5053661;28;20531;-81
2020/12/21 07:04:31;;;;;;;65.72;23.27;;;6.60;99.90;;;;;;5053469;28;20068;-81
2020/12/21 07:07:02;;;;;;;68.40;24.23;;;6.60;99.90;;;;;;5054664;28;20059;-81
2020/12/21 07:09:36;;;;;;;56.65;22.48;;;6.60;99.90;;;;;;5071848;28;20028;-81
2020/12/21 07:12:04;;;;;;;58.92;22.90;;;6.60;99.90;;;;;;5073310;28;20031;-80
2020/12/21 07:14:38;;;;;;;52.95;20.35;;;6.70;99.90;;;;;;5071938;28;20024;-81
2020/12/21 07:17:17;;;;;;;58.10;20.95;;;6.70;99.90;;;;;;5073171;28;20028;-81
2020/12/21 07:19:43;;;;;;;55.67;19.77;;;6.70;99.90;;;;;;5051984;28;20432;-81
2020/12/21 07:22:11;;;;;;;45.03;19.58;;;6.60;99.90;;;;;;5052061;28;20036;-81
2020/12/21 07:24:38;;;;;;;57.33;19.30;;;6.70;99.90;;;;;;5084545;28;20144;-83
2020/12/21 07:27:04;;;;;;;64.38;20.15;;;6.70;99.90;;;;;;5051641;28;20072;-82
2020/12/21 07:29:34;;;;;;;47.88;19.65;;;6.60;99.90;;;;;;5054362;28;20043;-82
2020/12/21 07:32:00;;;;;;;57.72;19.10;;;6.60;99.90;;;;;;5053936;28;20075;-82
2020/12/21 07:34:26;;;;;;;39.65;18.17;;;6.60;99.90;;;;;;5054960;28;20025;-81
2020/12/21 07:36:51;;;;;;;56.17;19.10;;;6.60;99.90;;;;;;5052459;28;20396;-82
2020/12/21 07:39:18;;;;;;;55.47;20.05;;;6.60;99.90;;;;;;5052430;28;20033;-81
2020/12/21 07:41:46;;;;;;;52.80;19.25;;;6.60;99.90;;;;;;5052647;28;20604;-81
2020/12/21 07:44:19;;;;;;;58.35;18.67;;;6.70;99.90;;;;;;5062863;28;20048;-81
2020/12/21 07:46:53;;;;;;;47.47;16.85;;;6.60;99.90;;;;;;5071952;28;20029;-80
2020/12/21 07:49:19;;;;;;;61.97;19.73;;;6.80;99.90;;;;;;5071266;28;20120;-81
2020/12/21 07:51:45;;;;;;;45.50;18.35;;;6.70;99.90;;;;;;5071050;28;20463;-80
2020/12/21 07:54:12;;;;;;;41.17;18.00;;;6.60;99.90;;;;;;5053952;28;20029;-80
2020/12/21 07:56:38;;;;;;;58.50;21.73;;;6.70;99.90;;;;;;5051108;28;20021;-81
2020/12/21 07:59:17;;;;;;;50.72;19.58;;;6.70;99.90;;;;;;5052362;28;20528;-81
2020/12/21 08:01:44;;;;;;;53.28;19.38;;;6.70;99.90;;;;;;5052322;28;20017;-80
2020/12/21 08:04:15;;;;;;;58.10;18.65;;;6.70;99.90;;;;;;5063713;28;20508;-82
2020/12/21 08:06:41;;;;;;;54.08;17.65;;;6.70;99.90;;;;;;5070923;28;20028;-82
2020/12/21 08:09:07;;;;;;;48.53;19.40;;;6.70;99.90;;;;;;5068994;28;20578;-82
2020/12/21 08:11:34;;;;;;;55.97;19.92;;;6.70;99.90;;;;;;5070767;28;20021;-82
2020/12/21 08:14:00;;;;;;;60.28;19.23;;;6.70;99.90;;;;;;5059472;28;20039;-83
2020/12/21 08:16:26;;;;;;;56.88;18.40;;;6.70;99.90;;;;;;5055872;28;20614;-82
2020/12/21 08:18:52;;;;;;;56.50;18.17;;;6.70;99.90;;;;;;5050436;28;20028;-81
2020/12/21 08:21:24;;;;;;;47.25;19.30;;;6.60;99.90;;;;;;5064492;28;20020;-81
2020/12/21 08:23:55;;;;;;;41.47;18.67;;;6.70;99.90;;;;;;5070872;28;20040;-80
2020/12/21 08:26:22;;;;;;;63.38;20.83;;;6.70;99.90;;;;;;5071804;28;20434;-81
2020/12/21 08:28:49;;;;;;;51.00;19.85;;;6.70;99.90;;;;;;5070736;28;20028;-80
2020/12/21 08:31:20;;;;;;;54.53;20.40;;;6.70;99.90;;;;;;5071586;28;20028;-80
2020/12/21 08:34:04;;;;;;;67.38;19.90;;;6.70;99.90;;;;;;5060361;28;20123;-80
2020/12/21 08:36:36;;;;;;;;;;;6.80;99.90;;;;;;5052053;28;20101;-81
2020/12/21 08:39:16;;;;;;;57.97;19.92;;;6.70;99.90;;;;;;5066041;28;19915;-81
2020/12/21 08:41:51;;;;;;;57.03;19.33;;;6.70;99.90;;;;;;5071512;28;20154;-80
2020/12/21 08:44:25;;;;;;;70.05;21.58;;;6.70;99.90;;;;;;5060947;28;20036;-82
2020/12/21 08:46:55;;;;;;;56.92;19.98;;;6.60;99.90;;;;;;5066856;28;20393;-82
2020/12/21 08:49:22;;;;;;;51.30;20.48;;;6.60;99.90;;;;;;5071780;28;20441;-83
2020/12/21 08:51:48;;;;;;;56.10;19.95;;;6.60;99.90;;;;;;5071359;28;20028;-82
2020/12/21 08:54:14;;;;;;;55.83;20.30;;;6.60;99.90;;;;;;5054381;28;20083;-82
2020/12/21 08:56:45;;;;;;;65.68;22.95;;;6.50;99.90;;;;;;5051489;28;20021;-82
2020/12/21 08:59:11;;;;;;;53.47;19.23;;;6.50;99.90;;;;;;5051690;28;20039;-82
2020/12/21 09:01:40;;;;;;;64.25;22.15;;;6.50;99.90;;;;;;5051526;28;20103;-82
2020/12/21 09:04:05;;;;;;;53.13;19.60;;;6.50;99.90;;;;;;5063754;28;20025;-83
2020/12/21 09:06:31;;;;;;;68.75;20.80;;;6.40;99.90;;;;;;5072741;28;20032;-83
2020/12/21 09:08:57;;;;;;;59.72;22.50;;;6.40;99.90;;;;;;5075415;28;20033;-82
2020/12/21 09:11:23;;;;;;;62.13;20.23;;;6.40;99.90;;;;;;5075572;28;20074;-82
2020/12/21 09:13:49;;;;;;;55.45;20.00;;;6.40;99.90;;;;;;5066671;28;20412;-84
2020/12/21 09:16:19;;;;;;;58.63;20.60;;;6.50;99.90;;;;;;5055382;28;20487;-82
2020/12/21 09:18:46;;;;;;;63.78;21.08;;;6.40;99.90;;;;;;5054167;28;20102;-81
2020/12/21 09:21:22;;;;;;;67.63;20.67;;;6.40;99.90;;;;;;5054121;28;20040;-82
2020/12/21 09:23:49;;;;;;;62.33;20.33;;;6.40;99.90;;;;;;5066635;28;20028;-83
2020/12/21 09:26:16;;;;;;;52.92;19.40;;;6.40;99.90;;;;;;5075309;28;20043;-80
2020/12/21 09:28:42;;;;;;;58.90;20.35;;;6.30;99.90;;;;;;5075351;28;20051;-82
2020/12/21 09:31:09;;;;;;;61.05;20.10;;;6.40;99.90;;;;;;5073851;28;20025;-83
2020/12/21 09:33:35;;;;;;;63.08;19.77;;;6.30;99.90;;;;;;5066708;28;20696;-82
2020/12/21 09:36:00;;;;;;;56.60;19.02;;;6.20;99.90;;;;;;5053514;28;20052;-83
2020/12/21 09:38:26;;;;;;;53.78;19.67;;;6.20;99.90;;;;;;5064768;28;20051;-82
2020/12/21 09:40:52;;;;;;;49.40;19.90;;;6.20;99.90;;;;;;5073827;28;20119;-82
2020/12/21 09:43:17;;;;;;;53.13;19.88;;;6.20;99.90;;;;;;5072378;28;20037;-82
2020/12/21 09:45:43;;;;;;;53.45;20.80;;;6.10;99.90;;;;;;5053633;28;20027;-82
2020/12/21 09:48:09;;;;;;;64.93;22.15;;;6.20;99.90;;;;;;5054825;28;20075;-83
2020/12/21 09:50:35;;;;;;;67.95;19.95;;;6.10;99.90;;;;;;5054783;28;20594;-82
2020/12/21 09:53:00;;;;;;;55.47;20.15;;;6.10;99.90;;;;;;5060739;28;20039;-82
2020/12/21 09:55:26;;;;;;;64.28;22.08;;;6.10;99.90;;;;;;5058517;28;20033;-81
2020/12/21 09:57:51;;;;;;;52.00;21.23;;;6.10;99.90;;;;;;5072785;28;20103;-80
2020/12/21 10:00:17;;;;;;;65.55;21.80;;;6.10;99.90;;;;;;5088445;28;20031;-83
2020/12/21 10:02:42;;;;;;;51.20;20.83;;;6.10;99.90;;;;;;5073814;28;20481;-83
2020/12/21 10:05:08;;;;;;;54.10;21.23;;;6.20;99.90;;;;;;5074071;28;20129;-82
2020/12/21 10:07:34;;;;;;;61.20;21.92;;;6.20;99.90;;;;;;5072859;28;20028;-83
2020/12/21 10:09:59;;;;;;;55.15;21.08;;;6.20;99.90;;;;;;5074329;28;20028;-81
2020/12/21 10:12:25;;;;;;;48.88;20.80;;;6.20;99.90;;;;;;5068478;28;20048;-82
2020/12/21 10:14:50;;;;;;;48.30;21.50;;;6.20;99.90;;;;;;5069760;28;20099;-83
2020/12/21 10:17:16;;;;;;;45.75;19.65;;;6.20;99.90;;;;;;5073607;28;20488;-80
2020/12/21 10:19:41;;;;;;;70.68;21.55;;;6.20;99.90;;;;;;5074056;28;20145;-81
2020/12/21 10:22:07;;;;;;;51.80;21.20;;;6.20;99.90;;;;;;5074266;28;20036;-81
2020/12/21 10:24:33;;;;;;;52.72;21.83;;;6.20;99.90;;;;;;5073149;28;20033;-85
2020/12/21 10:26:58;;;;;;;64.85;22.10;;;6.20;99.90;;;;;;5074051;28;20024;-84
2020/12/21 10:29:24;;;;;;;55.42;21.65;;;6.30;99.90;;;;;;5059829;28;20027;-81
2020/12/21 10:31:49;;;;;;;44.85;20.25;;;6.20;99.90;;;;;;5072755;28;20056;-82
2020/12/21 10:34:15;;;;;;;39.25;20.92;;;6.30;99.90;;;;;;5064858;28;20440;-81
2020/12/21 10:36:41;;;;;;;48.75;20.85;;;6.30;99.90;;;;;;5060348;28;20025;-83
2020/12/21 10:39:06;;;;;;;51.95;20.77;;;6.20;99.90;;;;;;5074071;28;20036;-81
2020/12/21 10:41:35;;;;;;;57.75;22.05;;;6.20;99.90;;;;;;5072650;28;20024;-81
2020/12/21 10:44:01;;;;;;;45.80;19.15;;;6.20;99.90;;;;;;5072445;28;20625;-82
2020/12/21 10:46:26;;;;;;;55.63;21.55;;;6.20;99.90;;;;;;5066234;28;20037;-80
2020/12/21 10:48:52;;;;;;;69.32;21.55;;;6.30;99.90;;;;;;5053605;28;20025;-82
2020/12/21 10:51:32;;;;;;;59.00;21.65;;;6.20;99.90;;;;;;5069114;28;20033;-81
2020/12/21 10:53:58;;;;;;;56.50;20.05;;;6.20;99.90;;;;;;5053979;28;20021;-82
2020/12/21 10:56:25;;;;;;;56.58;22.35;;;6.30;99.90;;;;;;5069224;28;20086;-81
2020/12/21 10:58:50;;;;;;;60.22;23.20;;;6.30;99.90;;;;;;5059292;28;20399;-81
2020/12/21 11:01:17;;;;;;;44.33;23.15;;;6.30;99.90;;;;;;5064493;28;20037;-81
2020/12/21 11:03:43;;;;;;;46.28;23.40;;;6.30;99.90;;;;;;5058865;28;20069;-82
2020/12/21 11:06:09;;;;;;;53.80;22.80;;;6.30;99.90;;;;;;5072153;28;20491;-82
2020/12/21 11:08:35;;;;;;;58.28;23.65;;;6.30;99.90;;;;;;5073360;28;20047;-82
2020/12/21 11:11:01;;;;;;;54.55;23.38;;;6.40;99.90;;;;;;5072154;28;20029;-81
2020/12/21 11:13:26;;;;;;;51.30;23.05;;;6.40;99.90;;;;;;5072571;28;20095;-82
2020/12/21 11:15:52;;;;;;;60.20;23.98;;;6.50;99.90;;;;;;5072857;28;20047;-81
2020/12/21 11:18:18;;;;;;;54.67;24.48;;;6.50;99.90;;;;;;5071586;28;20047;-81
2020/12/21 11:20:44;;;;;;;49.60;24.27;;;6.50;99.90;;;;;;5071959;28;20078;-81
2020/12/21 11:23:10;;;;;;;60.72;24.98;;;6.50;99.90;;;;;;5071049;28;20442;-82
2020/12/21 11:25:36;;;;;;;56.05;26.05;;;6.50;99.90;;;;;;5053020;28;20096;-81
2020/12/21 11:28:06;;;;;;;59.22;27.27;;;6.50;99.90;;;;;;5055250;28;20441;-81
2020/12/21 11:30:31;;;;;;;58.70;26.13;;;6.50;99.90;;;;;;5072901;28;20028;-81
2020/12/21 11:32:58;;;;;;;53.92;24.63;;;6.50;99.90;;;;;;5071472;28;20032;-81
2020/12/21 11:35:24;;;;;;;43.35;24.50;;;6.60;99.90;;;;;;5053994;28;20029;-81
2020/12/21 11:37:50;;;;;;;57.35;25.52;;;6.60;99.90;;;;;;5051674;28;20052;-83
2020/12/21 11:40:16;;;;;;;59.92;25.92;;;6.60;99.90;;;;;;5051560;28;20079;-82
2020/12/21 11:42:42;;;;;;;52.83;25.08;;;6.60;99.90;;;;;;5053373;28;20375;-82
2020/12/21 11:45:07;;;;;;;63.90;24.15;;;6.60;99.90;;;;;;5072454;28;20029;-82
2020/12/21 11:47:35;;;;;;;50.10;23.73;;;6.70;99.90;;;;;;5068066;28;20061;-85
2020/12/21 11:50:00;;;;;;;60.03;25.65;;;6.60;99.90;;;;;;5060969;28;20021;-83
2020/12/21 11:52:29;;;;;;;53.80;23.92;;;6.70;99.90;;;;;;5069134;28;20542;-82
2020/12/21 11:54:55;;;;;;;51.80;26.63;;;6.50;99.90;;;;;;5067678;28;20025;-82
2020/12/21 11:57:20;;;;;;;53.95;24.20;;;6.60;99.90;;;;;;5051218;28;20036;-83
2020/12/21 11:59:46;;;;;;;47.83;25.60;;;6.60;99.90;;;;;;5050660;28;20192;-83
2020/12/21 12:02:11;;;;;;;60.47;24.58;;;6.70;99.90;;;;;;5050131;28;20082;-82
2020/12/21 12:04:38;;;;;;;54.47;25.15;;;6.80;99.90;;;;;;5054605;28;20393;-81
2020/12/21 12:07:04;;;;;;;56.92;22.95;;;6.80;99.90;;;;;;5055865;28;20397;-81
2020/12/21 12:09:30;;;;;;;47.85;24.95;;;6.80;99.90;;;;;;5057644;28;20031;-81
2020/12/21 12:11:56;;;;;;;58.80;21.98;;;6.80;99.90;;;;;;5070511;28;20396;-89
2020/12/21 12:14:22;;;;;;;58.55;23.50;;;6.90;99.90;;;;;;5070780;28;20366;-89
2020/12/21 12:16:48;;;;;;;40.30;22.15;;;6.90;99.90;;;;;;5070826;28;20037;-90
2020/12/21 12:19:14;;;;;;;58.30;22.70;;;6.90;99.90;;;;;;5059563;28;20021;-83
2020/12/21 12:21:40;;;;;;;47.38;21.85;;;6.80;99.90;;;;;;5059092;28;20024;-80
2020/12/21 12:24:06;;;;;;;46.72;22.33;;;6.80;99.90;;;;;;5069256;28;20024;-80
2020/12/21 12:26:32;;;;;;;45.58;23.63;;;6.80;99.90;;;;;;5070768;28;20093;-80
2020/12/21 12:28:58;;;;;;;46.03;21.98;;;6.70;99.90;;;;;;5068947;28;20476;-81
2020/12/21 12:31:24;;;;;;;62.20;23.05;;;6.70;99.90;;;;;;5053687;28;20115;-81
2020/12/21 12:33:51;;;;;;;63.75;22.92;;;6.70;99.90;;;;;;5071876;28;20425;-81
2020/12/21 12:36:21;;;;;;;51.25;23.88;;;6.70;99.90;;;;;;5059649;28;20032;-81